Time;durP1;ratioP1;P1;durP2;ratioP2;P2;SDS_P1;SDS_P2;PMS_P1;PMS_P2;Temp;Humidity;BMP_temperature;BMP_pressure;BME280_temperature;BME280_humidity;BME280_pressure;Samples;Min_cycle;Max_cycle;Signal;HPM_P1;HPM_P2
2022/06/18 00:00:17;;;;;;;11.25;4.90;;;20.70;99.90;;;;;;5075132;28;20075;-47
2022/06/18 00:02:43;;;;;;;8.15;5.18;;;18.20;99.90;;;;;;5073699;28;20036;-47
2022/06/18 00:05:13;;;;;;;7.22;5.05;;;18.10;99.90;;;;;;5073864;28;20114;-43
2022/06/18 00:07:43;;;;;;;11.20;5.72;;;18.20;99.90;;;;;;5072728;28;20093;-45
2022/06/18 00:10:13;;;;;;;11.82;5.53;;;18.10;99.90;;;;;;5073249;28;20036;-47
2022/06/18 00:15:29;;;;;;;11.52;5.60;;;18.30;99.90;;;;;;5074073;28;20055;-45
2022/06/18 00:17:57;;;;;;;11.13;5.95;;;18.30;99.90;;;;;;5074038;28;20040;-47
2022/06/18 00:20:28;;;;;;;8.00;5.28;;;18.50;99.90;;;;;;5072306;28;20038;-47
2022/06/18 00:22:57;;;;;;;9.20;5.15;;;18.40;99.90;;;;;;5073083;28;20043;-47
2022/06/18 00:25:29;;;;;;;7.60;5.35;;;18.60;99.90;;;;;;5074844;28;20044;-47
2022/06/18 00:27:55;;;;;;;8.38;6.07;;;19.20;99.90;;;;;;5072472;28;20040;-47
2022/06/18 00:30:23;;;;;;;8.07;5.78;;;18.70;99.90;;;;;;5074456;28;20536;-46
2022/06/18 00:32:49;;;;;;;13.38;5.72;;;18.60;99.90;;;;;;5072669;28;20047;-46
2022/06/18 00:35:15;;;;;;;10.80;5.78;;;20.90;99.90;;;;;;5072417;28;20048;-47
2022/06/18 00:37:42;;;;;;;7.70;5.82;;;18.50;99.90;;;;;;5073653;28;20215;-43
2022/06/18 00:40:26;;;;;;;13.00;5.57;;;18.80;99.90;;;;;;5071481;28;20086;-44
2022/06/18 00:42:52;;;;;;;9.85;5.60;;;18.80;99.90;;;;;;5072511;28;20032;-45
2022/06/18 00:45:26;;;;;;;10.02;5.43;;;19.50;99.90;;;;;;5073219;28;20125;-45
2022/06/18 00:48:17;;;;;;;9.88;5.78;;;19.30;99.90;;;;;;5073303;28;20617;-47
2022/06/18 00:51:09;;;;;;;10.43;5.73;;;18.90;99.90;;;;;;5074014;28;20044;-48
2022/06/18 00:53:45;;;;;;;10.68;5.47;;;21.20;99.90;;;;;;5074920;28;20040;-45
2022/06/18 00:56:35;;;;;;;10.45;5.75;;;19.20;99.90;;;;;;5073035;28;20442;-45
2022/06/18 00:59:04;;;;;;;8.60;5.47;;;19.10;99.90;;;;;;5074695;28;20206;-47
2022/06/18 01:01:42;;;;;;;9.15;6.35;;;19.20;99.90;;;;;;5073499;28;20047;-48
2022/06/18 01:04:26;;;;;;;11.38;5.93;;;19.20;99.90;;;;;;5073891;28;20300;-46
2022/06/18 01:07:22;;;;;;;10.60;6.25;;;19.30;99.90;;;;;;5074507;28;20587;-45
2022/06/18 01:09:51;;;;;;;9.52;6.10;;;19.20;99.90;;;;;;5072325;28;20060;-48
2022/06/18 01:12:19;;;;;;;9.65;6.30;;;19.30;99.90;;;;;;5068598;28;20040;-45
2022/06/18 01:14:49;;;;;;;10.20;6.32;;;19.40;99.90;;;;;;5075042;28;20048;-48
2022/06/18 01:17:16;;;;;;;9.43;6.22;;;19.40;99.90;;;;;;5074658;28;20042;-46
2022/06/18 01:19:46;;;;;;;9.18;6.78;;;21.80;99.90;;;;;;5073691;28;20157;-47
2022/06/18 01:22:26;;;;;;;9.55;6.55;;;19.50;99.90;;;;;;5072491;28;20083;-44
2022/06/18 01:24:52;;;;;;;9.93;6.40;;;19.30;99.90;;;;;;5072784;28;20044;-45
2022/06/18 01:27:18;;;;;;;11.00;6.60;;;19.80;99.90;;;;;;5072206;28;20036;-48
2022/06/18 01:29:44;;;;;;;11.43;6.60;;;20.40;99.90;;;;;;5073000;28;20032;-46
2022/06/18 01:32:12;;;;;;;12.07;6.85;;;19.60;99.90;;;;;;5073108;28;20048;-46
2022/06/18 01:34:38;;;;;;;9.82;6.75;;;19.10;99.90;;;;;;5073385;28;20036;-47
2022/06/18 01:37:05;;;;;;;11.93;7.60;;;19.10;99.90;;;;;;5072366;28;20046;-48
2022/06/18 01:39:35;;;;;;;10.10;6.80;;;19.00;99.90;;;;;;5071845;28;20488;-44
2022/06/18 01:42:14;;;;;;;12.10;7.57;;;21.10;99.90;;;;;;5070752;28;20040;-48
2022/06/18 01:44:48;;;;;;;10.10;7.97;;;19.00;99.90;;;;;;5073254;28;20059;-47
2022/06/18 01:47:26;;;;;;;15.02;7.90;;;18.60;99.90;;;;;;5072591;28;20063;-46
2022/06/18 01:50:09;;;;;;;10.70;7.63;;;20.40;99.90;;;;;;5071868;28;20048;-45
2022/06/18 01:53:01;;;;;;;12.43;8.02;;;18.70;99.90;;;;;;5070850;28;20032;-44
2022/06/18 01:55:32;;;;;;;12.93;8.30;;;19.30;99.90;;;;;;5070731;28;20036;-46
2022/06/18 01:58:08;;;;;;;14.47;7.83;;;18.40;99.90;;;;;;5072969;28;20052;-48
2022/06/18 02:00:34;;;;;;;12.40;7.57;;;18.70;99.90;;;;;;5072778;28;20381;-47
2022/06/18 02:03:01;;;;;;;10.43;7.43;;;19.50;99.90;;;;;;5076413;28;20496;-46
2022/06/18 02:05:27;;;;;;;10.77;7.03;;;18.60;99.90;;;;;;5076590;28;20512;-46
2022/06/18 02:07:55;;;;;;;10.52;7.00;;;18.40;99.90;;;;;;5075749;28;20229;-48
2022/06/18 02:10:31;;;;;;;13.18;7.50;;;18.50;99.90;;;;;;5077086;28;20530;-47
2022/06/18 02:13:00;;;;;;;12.07;7.50;;;18.30;99.90;;;;;;5076451;28;20076;-47
2022/06/18 02:15:31;;;;;;;11.30;7.80;;;18.30;99.90;;;;;;5077393;28;20052;-47
2022/06/18 02:18:00;;;;;;;10.23;7.45;;;18.50;99.90;;;;;;5076769;28;20063;-46
2022/06/18 02:20:30;;;;;;;11.10;7.50;;;18.50;99.90;;;;;;5076899;28;20065;-45
2022/06/18 02:22:57;;;;;;;10.77;8.70;;;18.10;99.90;;;;;;5077219;28;20044;-48
2022/06/18 02:25:27;;;;;;;17.05;8.73;;;18.10;99.90;;;;;;5077428;28;20180;-47
2022/06/18 02:28:09;;;;;;;15.65;9.70;;;18.20;99.90;;;;;;5076353;28;20169;-47
2022/06/18 02:30:37;;;;;;;15.65;8.07;;;17.90;99.90;;;;;;5077501;28;20032;-46
2022/06/18 02:33:41;;;;;;;10.45;8.82;;;18.10;99.90;;;;;;5075730;28;20043;-47
2022/06/18 02:36:18;;;;;;;15.07;9.15;;;18.00;99.90;;;;;;5013483;28;20053;-47
2022/06/18 02:38:46;;;;;;;14.15;9.48;;;20.00;99.90;;;;;;5013060;28;20073;-48
2022/06/18 02:41:13;;;;;;;12.27;9.70;;;18.50;99.90;;;;;;5010793;28;20056;-46
2022/06/18 02:43:42;;;;;;;12.65;9.73;;;17.60;99.90;;;;;;4997341;28;20089;-48
2022/06/18 02:46:09;;;;;;;14.65;9.52;;;17.70;99.90;;;;;;5011955;28;20107;-45
2022/06/18 02:48:37;;;;;;;13.35;9.77;;;17.80;99.90;;;;;;5012605;28;20041;-48
2022/06/18 02:51:05;;;;;;;15.57;9.63;;;17.70;99.90;;;;;;5011683;28;20052;-48
2022/06/18 02:53:32;;;;;;;14.50;9.82;;;17.50;99.90;;;;;;5010357;28;20734;-46
2022/06/18 02:56:03;;;;;;;13.80;9.85;;;18.60;99.90;;;;;;5012893;28;20108;-48
2022/06/18 02:58:42;;;;;;;17.40;10.77;;;19.50;99.90;;;;;;5012777;28;20069;-48
2022/06/18 03:01:17;;;;;;;13.57;10.18;;;17.50;99.90;;;;;;5012375;28;20053;-47
2022/06/18 03:03:47;;;;;;;15.75;10.05;;;17.40;99.90;;;;;;5012533;28;20045;-46
2022/06/18 03:06:14;;;;;;;16.73;10.95;;;17.30;99.90;;;;;;4998786;28;20057;-48
2022/06/18 03:08:41;;;;;;;18.50;11.80;;;19.10;99.90;;;;;;5011707;28;20060;-48
2022/06/18 03:13:54;;;;;;;17.52;11.98;;;17.10;99.90;;;;;;5065200;28;20115;-47
2022/06/18 03:16:22;;;;;;;16.00;10.50;;;17.30;99.90;;;;;;5074857;28;20101;-48
2022/06/18 03:18:50;;;;;;;17.73;11.05;;;17.10;99.90;;;;;;5072678;28;20040;-46
2022/06/18 03:21:36;;;;;;;17.50;11.52;;;17.30;99.90;;;;;;5074043;28;20063;-47
2022/06/18 03:24:03;;;;;;;19.98;11.38;;;17.30;99.90;;;;;;5073951;28;20061;-47
2022/06/18 03:26:29;;;;;;;18.15;11.55;;;16.90;99.90;;;;;;5074302;28;20032;-46
2022/06/18 03:28:55;;;;;;;21.48;12.45;;;19.20;99.90;;;;;;5074839;28;20040;-47
2022/06/18 03:31:20;;;;;;;21.50;12.20;;;17.80;99.90;;;;;;5074101;28;20511;-48
2022/06/18 03:33:47;;;;;;;24.95;13.50;;;17.00;99.90;;;;;;5074727;28;20131;-48
2022/06/18 03:36:17;;;;;;;24.50;13.93;;;16.90;99.90;;;;;;5074664;28;20039;-43
2022/06/18 03:38:45;;;;;;;20.02;12.88;;;16.90;99.90;;;;;;5075294;28;20040;-44
2022/06/18 03:41:12;;;;;;;22.42;12.93;;;17.70;99.90;;;;;;5074171;28;20167;-47
2022/06/18 03:43:38;;;;;;;22.83;13.48;;;17.60;99.90;;;;;;5075510;28;20043;-44
2022/06/18 03:46:08;;;;;;;27.90;13.73;;;17.10;99.90;;;;;;5074414;28;20151;-47
2022/06/18 03:48:50;;;;;;;28.40;13.85;;;17.60;99.90;;;;;;5074231;28;20048;-48
2022/06/18 03:51:18;;;;;;;21.35;12.98;;;16.90;99.90;;;;;;5074898;28;20213;-48
2022/06/18 03:53:45;;;;;;;18.98;13.73;;;18.30;99.90;;;;;;5072833;28;21073;-46
2022/06/18 03:56:12;;;;;;;21.80;13.13;;;16.80;99.90;;;;;;5074151;28;20047;-46
2022/06/18 03:58:39;;;;;;;23.35;14.93;;;17.10;99.90;;;;;;5073237;28;20040;-46
2022/06/18 04:01:07;;;;;;;31.33;15.65;;;16.80;99.90;;;;;;5074595;28;20032;-47
2022/06/18 04:03:32;;;;;;;21.27;14.45;;;17.00;99.90;;;;;;5073183;28;20035;-44
2022/06/18 04:05:58;;;;;;;27.77;15.38;;;16.90;99.90;;;;;;5073191;28;20079;-46
2022/06/18 04:08:24;;;;;;;26.00;15.70;;;16.60;99.90;;;;;;5072327;28;20087;-45
2022/06/18 04:10:50;;;;;;;22.65;16.27;;;16.90;99.90;;;;;;5074345;28;20412;-47
2022/06/18 04:13:16;;;;;;;28.30;17.92;;;16.90;99.90;;;;;;5073355;28;20400;-46
2022/06/18 04:15:42;;;;;;;22.80;15.55;;;16.90;99.90;;;;;;5073112;28;20040;-46
2022/06/18 04:18:10;;;;;;;29.88;17.30;;;16.70;99.90;;;;;;5074430;28;20401;-44
2022/06/18 04:20:37;;;;;;;25.38;16.23;;;16.90;99.90;;;;;;5072749;28;20643;-44
2022/06/18 04:23:04;;;;;;;27.30;17.50;;;17.00;99.90;;;;;;5073601;28;20489;-45
2022/06/18 04:25:31;;;;;;;33.10;16.80;;;16.90;99.90;;;;;;5073490;28;20036;-47
2022/06/18 04:27:57;;;;;;;27.02;17.10;;;17.30;99.90;;;;;;5072491;28;20071;-47
2022/06/18 04:30:26;;;;;;;29.20;17.23;;;19.20;99.90;;;;;;5074272;28;20591;-47
2022/06/18 04:32:53;;;;;;;26.73;16.58;;;16.80;99.90;;;;;;5073017;28;22209;-48
2022/06/18 04:35:19;;;;;;;24.17;15.18;;;18.00;99.90;;;;;;5074410;28;20123;-45
2022/06/18 04:37:45;;;;;;;27.70;16.95;;;17.00;99.90;;;;;;5072790;28;20043;-46
2022/06/18 04:40:20;;;;;;;34.72;17.10;;;17.20;99.90;;;;;;5072306;28;20054;-48
2022/06/18 04:42:46;;;;;;;23.85;16.88;;;17.60;99.90;;;;;;5073167;28;20073;-47
2022/06/18 04:45:13;;;;;;;29.45;16.73;;;19.40;99.90;;;;;;5073895;28;20044;-46
2022/06/18 04:47:41;;;;;;;27.98;17.88;;;17.20;99.90;;;;;;5074252;28;20071;-47
2022/06/18 04:50:15;;;;;;;27.45;16.23;;;17.90;99.90;;;;;;5074645;28;20044;-44
2022/06/18 04:52:41;;;;;;;28.42;16.92;;;17.40;99.90;;;;;;5074960;28;20797;-47
2022/06/18 04:55:07;;;;;;;23.55;16.38;;;17.90;99.90;;;;;;5074769;28;20044;-48
2022/06/18 04:57:33;;;;;;;23.35;15.93;;;17.30;99.90;;;;;;5075489;28;20504;-45
2022/06/18 04:59:59;;;;;;;24.08;15.25;;;18.10;99.90;;;;;;5073148;28;20155;-47
2022/06/18 05:02:29;;;;;;;22.52;14.82;;;17.60;99.90;;;;;;5075453;28;20459;-48
2022/06/18 05:04:55;;;;;;;31.98;16.27;;;17.70;99.90;;;;;;5073491;28;20036;-48
2022/06/18 05:07:21;;;;;;;28.35;16.98;;;18.50;99.90;;;;;;5074316;28;20047;-45
2022/06/18 05:09:48;;;;;;;22.58;16.25;;;17.80;99.90;;;;;;5073854;28;20044;-47
2022/06/18 05:12:15;;;;;;;24.35;14.55;;;18.70;99.90;;;;;;5070538;28;20813;-48
2022/06/18 05:14:42;;;;;;;26.35;15.75;;;17.80;99.90;;;;;;5072553;28;20149;-45
2022/06/18 05:17:12;;;;;;;30.67;17.25;;;17.70;99.90;;;;;;5072121;28;20508;-46
2022/06/18 05:19:38;;;;;;;26.08;15.20;;;17.90;99.90;;;;;;5071962;28;20745;-46
2022/06/18 05:22:03;;;;;;;30.50;15.30;;;17.80;99.90;;;;;;5072737;28;20122;-47
2022/06/18 05:24:29;;;;;;;23.95;13.90;;;18.00;99.90;;;;;;5071965;28;20400;-48
2022/06/18 05:26:58;;;;;;;21.15;13.77;;;18.20;99.90;;;;;;5071853;28;20040;-47
2022/06/18 05:29:24;;;;;;;27.05;15.05;;;18.10;99.90;;;;;;5072578;28;20066;-44
2022/06/18 05:31:50;;;;;;;26.20;14.10;;;18.20;99.90;;;;;;5072462;28;20309;-48
2022/06/18 05:34:15;;;;;;;25.75;14.68;;;18.30;99.90;;;;;;5072779;28;20040;-48
2022/06/18 05:36:41;;;;;;;26.23;13.75;;;18.70;99.90;;;;;;5075175;28;20139;-46
2022/06/18 05:39:10;;;;;;;25.27;15.23;;;18.60;99.90;;;;;;5075938;28;20043;-44
2022/06/18 05:41:36;;;;;;;23.75;13.77;;;20.10;99.90;;;;;;5076444;28;20466;-50
2022/06/18 05:44:03;;;;;;;23.27;12.43;;;18.70;99.90;;;;;;5076899;28;20051;-47
2022/06/18 05:46:29;;;;;;;23.10;12.82;;;18.80;99.90;;;;;;5076137;28;20046;-48
2022/06/18 05:48:54;;;;;;;28.30;14.32;;;19.40;99.90;;;;;;5076143;28;20036;-49
2022/06/18 05:51:20;;;;;;;19.77;12.77;;;20.00;99.90;;;;;;5076652;28;20089;-48
2022/06/18 05:53:46;;;;;;;22.92;13.18;;;18.80;99.90;;;;;;5077551;28;20749;-45
2022/06/18 05:56:14;;;;;;;22.85;12.23;;;19.00;99.90;;;;;;5076637;28;20043;-48
2022/06/18 05:58:40;;;;;;;20.63;11.65;;;19.20;99.90;;;;;;5077941;28;20523;-49
2022/06/18 06:01:06;;;;;;;21.25;12.63;;;19.20;99.90;;;;;;5078045;28;20048;-49
2022/06/18 06:03:31;;;;;;;23.13;12.73;;;19.20;99.90;;;;;;5076069;28;20517;-48
2022/06/18 06:05:57;;;;;;;23.58;11.88;;;19.50;99.90;;;;;;5078704;28;20147;-48
2022/06/18 06:08:23;;;;;;;18.83;10.25;;;19.50;99.90;;;;;;5077068;28;20042;-45
2022/06/18 06:13:35;;;;;;;21.35;10.38;;;19.90;99.90;;;;;;5077829;28;20058;-45
2022/06/18 06:16:01;;;;;;;16.90;8.88;;;19.90;99.90;;;;;;5076208;28;20035;-47
2022/06/18 06:18:27;;;;;;;19.05;10.02;;;20.00;99.90;;;;;;5077933;28;20047;-46
2022/06/18 06:20:55;;;;;;;16.98;8.82;;;20.20;99.90;;;;;;5077551;28;20504;-47
2022/06/18 06:23:23;;;;;;;19.90;8.75;;;20.60;99.90;;;;;;5075979;28;20093;-46
2022/06/18 06:25:50;;;;;;;17.33;9.32;;;20.50;99.90;;;;;;5076034;28;20067;-48
2022/06/18 06:28:19;;;;;;;17.75;9.25;;;20.90;99.90;;;;;;5074608;28;20044;-48
2022/06/18 06:30:47;;;;;;;19.63;9.13;;;20.90;99.90;;;;;;5075214;28;20044;-49
2022/06/18 06:33:12;;;;;;;24.45;8.52;;;20.80;99.90;;;;;;5075721;28;20062;-48
2022/06/18 06:35:38;;;;;;;14.60;8.35;;;20.90;99.90;;;;;;5074800;28;20036;-48
2022/06/18 06:38:04;;;;;;;18.63;7.88;;;21.40;99.90;;;;;;5075251;28;20130;-49
2022/06/18 06:40:32;;;;;;;16.40;7.88;;;21.10;99.90;;;;;;5075857;28;20056;-48
2022/06/18 06:42:58;;;;;;;20.55;7.53;;;21.10;99.90;;;;;;5075225;28;20051;-44
2022/06/18 06:45:30;;;;;;;16.73;7.38;;;21.10;99.90;;;;;;5074151;28;20036;-48
2022/06/18 06:47:57;;;;;;;18.45;7.95;;;21.10;99.90;;;;;;5074719;28;20065;-48
2022/06/18 06:50:25;;;;;;;16.60;7.20;;;21.50;99.90;;;;;;5075685;28;20040;-49
2022/06/18 06:52:51;;;;;;;22.08;7.28;;;21.70;99.90;;;;;;5075814;28;20040;-48
2022/06/18 06:58:10;;;;;;;13.02;5.53;;;22.40;99.90;;;;;;5074485;28;20426;-45
2022/06/18 07:00:40;;;;;;;13.93;6.22;;;22.30;99.90;;;;;;5075615;28;20265;-48
2022/06/18 07:03:06;;;;;;;13.27;5.75;;;22.40;99.90;;;;;;5074655;28;20044;-48
2022/06/18 07:05:32;;;;;;;14.15;5.68;;;22.60;99.90;;;;;;5075152;28;20044;-49
2022/06/18 07:07:59;;;;;;;12.85;5.38;;;22.50;99.90;;;;;;5073304;28;20036;-48
2022/06/18 07:10:25;;;;;;;14.13;6.88;;;22.60;99.90;;;;;;5073877;28;20036;-49
2022/06/18 07:12:51;;;;;;;13.07;5.43;;;23.20;99.90;;;;;;5075042;28;20403;-50
2022/06/18 07:15:17;;;;;;;15.23;5.65;;;23.60;99.90;;;;;;5073543;28;20508;-49
2022/06/18 07:17:42;;;;;;;13.32;5.32;;;24.30;99.90;;;;;;5075946;28;20044;-49
2022/06/18 07:20:18;;;;;;;15.93;5.15;;;24.30;99.90;;;;;;5075487;28;20234;-50
2022/06/18 07:22:46;;;;;;;15.93;5.13;;;24.80;99.90;;;;;;5076042;28;20040;-49
2022/06/18 07:25:13;;;;;;;11.55;4.68;;;25.00;99.90;;;;;;5074789;28;20522;-49
2022/06/18 07:27:40;;;;;;;13.80;5.28;;;25.70;99.90;;;;;;5076226;28;20060;-50
2022/06/18 07:30:09;;;;;;;11.80;4.10;;;26.10;99.90;;;;;;5074337;28;20051;-50
2022/06/18 07:32:44;;;;;;;12.10;4.90;;;26.60;99.90;;;;;;5077199;28;20040;-50
2022/06/18 07:35:16;;;;;;;11.80;4.25;;;26.80;99.90;;;;;;5076481;28;20044;-49
2022/06/18 07:37:42;;;;;;;10.02;3.78;;;27.20;99.90;;;;;;5076168;28;20091;-49
2022/06/18 07:40:08;;;;;;;9.40;3.65;;;27.30;99.90;;;;;;5075162;28;20599;-47
2022/06/18 07:42:35;;;;;;;10.48;3.80;;;27.30;99.90;;;;;;5075094;28;20048;-50
2022/06/18 07:45:01;;;;;;;8.38;2.88;;;27.70;99.90;;;;;;5073159;28;20570;-49
2022/06/18 07:47:26;;;;;;;10.10;2.95;;;28.10;99.90;;;;;;5075534;28;20068;-49
2022/06/18 07:49:54;;;;;;;7.85;2.25;;;26.00;99.90;;;;;;5074125;28;20123;-50
2022/06/18 07:52:20;;;;;;;7.05;2.17;;;28.20;99.90;;;;;;5073812;28;20203;-45
2022/06/18 07:54:45;;;;;;;5.85;1.77;;;28.30;99.90;;;;;;5073685;28;20036;-46
2022/06/18 07:57:13;;;;;;;6.07;2.33;;;28.50;99.90;;;;;;5073190;28;20530;-50
2022/06/18 07:59:39;;;;;;;6.32;2.13;;;28.50;99.90;;;;;;5073113;28;20047;-49
2022/06/18 08:02:10;;;;;;;7.22;2.03;;;28.20;99.90;;;;;;5075390;28;20455;-51
2022/06/18 08:04:36;;;;;;;6.97;1.73;;;28.60;99.90;;;;;;5074991;28;20040;-50
2022/06/18 08:07:02;;;;;;;3.70;1.50;;;28.60;99.90;;;;;;5074521;28;20047;-48
2022/06/18 08:09:29;;;;;;;6.13;1.80;;;28.80;99.90;;;;;;5074545;28;20040;-49
2022/06/18 08:11:55;;;;;;;5.88;1.63;;;29.00;99.90;;;;;;5074510;28;20387;-48
2022/06/18 08:14:21;;;;;;;7.43;1.40;;;28.90;99.90;;;;;;5074692;28;20093;-48
2022/06/18 08:16:49;;;;;;;5.05;1.52;;;28.70;99.90;;;;;;5074760;28;20319;-48
2022/06/18 08:19:15;;;;;;;5.25;1.50;;;28.80;99.90;;;;;;5073457;28;20040;-50
2022/06/18 08:21:43;;;;;;;3.28;0.95;;;28.90;99.90;;;;;;5074784;28;20036;-49
2022/06/18 08:24:16;;;;;;;3.78;1.40;;;28.80;99.90;;;;;;5075065;28;20063;-49
2022/06/18 08:26:44;;;;;;;5.07;1.27;;;28.90;99.90;;;;;;5074403;28;20050;-50
2022/06/18 08:29:14;;;;;;;5.28;1.52;;;28.80;99.90;;;;;;5074256;28;20057;-47
2022/06/18 08:31:40;;;;;;;5.73;1.30;;;28.50;99.90;;;;;;5076120;28;20044;-48
2022/06/18 08:34:08;;;;;;;5.35;1.30;;;28.00;99.90;;;;;;5074189;28;20047;-49
2022/06/18 08:36:34;;;;;;;7.93;1.60;;;27.60;99.90;;;;;;5073482;28;20534;-49
2022/06/18 08:39:00;;;;;;;5.68;1.60;;;26.60;99.90;;;;;;5072689;28;20695;-49
2022/06/18 08:41:38;;;;;;;5.15;1.30;;;26.70;99.90;;;;;;5073556;28;20055;-50
2022/06/18 08:44:10;;;;;;;4.32;1.50;;;26.80;99.90;;;;;;5073906;28;20046;-48
2022/06/18 08:47:11;;;;;;;4.97;1.80;;;26.80;99.90;;;;;;5074260;28;20036;-50
2022/06/18 08:49:42;;;;;;;;;;;27.10;99.90;;;;;;5074220;28;20420;-48
2022/06/18 08:52:27;;;;;;;;;;;26.60;99.90;;;;;;5074578;28;20490;-48
2022/06/18 08:55:17;;;;;;;5.15;1.63;;;26.40;99.90;;;;;;5072085;28;20352;-49
2022/06/18 08:58:06;;;;;;;6.28;1.60;;;24.90;99.90;;;;;;5071439;28;20131;-49
2022/06/18 09:01:07;;;;;;;5.20;1.90;;;25.80;99.90;;;;;;4993641;28;20042;-48
2022/06/18 09:04:19;;;;;;;7.28;1.88;;;26.00;99.90;;;;;;4970682;28;20506;-49
2022/06/18 09:06:55;;;;;;;4.70;1.50;;;26.10;99.90;;;;;;4932210;28;20180;-50
2022/06/18 09:09:39;;;;;;;5.65;1.88;;;26.50;99.90;;;;;;4930199;28;20162;-50
2022/06/18 09:12:42;;;;;;;4.85;1.30;;;26.00;99.90;;;;;;4931633;28;20047;-50
2022/06/18 09:15:28;;;;;;;3.17;1.25;;;26.20;99.90;;;;;;4912298;29;20047;-48
2022/06/18 09:17:58;;;;;;;5.45;1.63;;;26.20;99.90;;;;;;4912724;29;20475;-48
2022/06/18 09:20:32;;;;;;;4.57;1.20;;;26.20;99.90;;;;;;4896723;29;20055;-49
2022/06/18 09:23:04;;;;;;;4.43;1.05;;;26.10;99.90;;;;;;4913773;29;20091;-50
2022/06/18 09:25:35;;;;;;;4.82;1.17;;;26.40;99.90;;;;;;4911980;29;20402;-48
2022/06/18 09:28:06;;;;;;;4.90;1.23;;;25.80;99.90;;;;;;4912436;29;20040;-48
2022/06/18 09:30:35;;;;;;;3.78;1.15;;;25.70;99.90;;;;;;4911744;29;20051;-47
2022/06/18 09:33:14;;;;;;;5.15;1.50;;;25.50;99.90;;;;;;4911839;29;20051;-49
2022/06/18 09:35:56;;;;;;;6.63;1.35;;;26.70;99.90;;;;;;4913089;29;20856;-49
2022/06/18 09:38:28;;;;;;;5.70;1.42;;;25.50;99.90;;;;;;4946407;28;20145;-49
2022/06/18 09:40:57;;;;;;;5.57;1.50;;;25.40;99.90;;;;;;4970938;28;20492;-44
2022/06/18 09:43:42;;;;;;;4.68;1.25;;;26.70;99.90;;;;;;4986486;28;20417;-47
2022/06/18 09:46:18;;;;;;;4.60;1.30;;;24.90;99.90;;;;;;5029227;28;20037;-49
2022/06/18 09:48:44;;;;;;;4.13;1.45;;;26.30;99.90;;;;;;5028428;28;20048;-47
2022/06/18 09:51:20;;;;;;;5.13;1.88;;;25.00;99.90;;;;;;5057783;28;22251;-49
2022/06/18 09:53:47;;;;;;;6.28;1.67;;;24.80;99.90;;;;;;5073118;28;20762;-49
2022/06/18 09:56:24;;;;;;;4.30;1.30;;;24.70;99.90;;;;;;5071354;28;20618;-49
2022/06/18 09:58:56;;;;;;;5.45;1.40;;;24.70;99.90;;;;;;5074132;28;20396;-48
2022/06/18 10:01:37;;;;;;;4.07;1.45;;;24.40;99.90;;;;;;5072787;28;20101;-49
2022/06/18 10:06:57;;;;;;;5.75;1.10;;;22.50;99.90;;;;;;5072942;28;20062;-46
2022/06/18 10:09:51;;;;;;;5.07;1.20;;;24.30;99.90;;;;;;5073441;28;21195;-49
2022/06/18 10:12:22;;;;;;;3.40;1.23;;;24.60;99.90;;;;;;5073921;28;20495;-46
2022/06/18 10:14:52;;;;;;;4.30;1.20;;;25.00;99.90;;;;;;5072319;28;20051;-51
2022/06/18 10:17:33;;;;;;;6.07;1.42;;;24.90;99.90;;;;;;5073310;28;20056;-49
2022/06/18 10:20:19;;;;;;;6.88;1.45;;;25.10;99.90;;;;;;5073647;28;20074;-49
2022/06/18 10:23:13;;;;;;;4.60;1.40;;;25.00;99.90;;;;;;5076127;28;20051;-46
2022/06/18 10:26:12;;;;;;;4.00;0.95;;;24.70;99.90;;;;;;5075383;28;20055;-45
2022/06/18 10:29:22;;;;;;;3.30;1.00;;;24.90;99.90;;;;;;5075156;28;20054;-49
2022/06/18 10:32:26;;;;;;;5.53;1.20;;;25.10;99.90;;;;;;4994130;28;20066;-48
2022/06/18 10:35:19;;;;;;;5.32;1.58;;;25.00;99.90;;;;;;4992833;28;20049;-47
2022/06/18 10:38:15;;;;;;;4.18;1.30;;;25.30;99.90;;;;;;4993043;28;20557;-48
2022/06/18 10:41:15;;;;;;;4.70;1.23;;;25.40;99.90;;;;;;4992626;28;20531;-46
2022/06/18 10:43:59;;;;;;;5.57;1.30;;;25.40;99.90;;;;;;4992899;28;20063;-50
2022/06/18 10:46:27;;;;;;;6.28;1.42;;;25.50;99.90;;;;;;4992408;28;20576;-47
2022/06/18 10:48:57;;;;;;;4.95;1.58;;;25.20;99.90;;;;;;4992151;28;20046;-49
2022/06/18 10:51:26;;;;;;;4.05;1.15;;;26.10;99.90;;;;;;4992626;28;20470;-49
2022/06/18 10:53:57;;;;;;;6.63;1.45;;;25.10;99.90;;;;;;4993180;28;20046;-46
2022/06/18 10:56:29;;;;;;;4.63;1.10;;;25.30;99.90;;;;;;4992509;28;20161;-50
2022/06/18 10:58:59;;;;;;;6.53;1.15;;;25.30;99.90;;;;;;4992580;28;20046;-48
2022/06/18 11:01:43;;;;;;;5.55;1.13;;;25.00;99.90;;;;;;4991849;28;20077;-48
2022/06/18 11:04:31;;;;;;;3.42;1.30;;;25.30;99.90;;;;;;4976473;28;20174;-46
2022/06/18 11:07:02;;;;;;;2.58;0.90;;;25.80;99.90;;;;;;4992647;28;20478;-48
2022/06/18 11:09:31;;;;;;;5.00;1.20;;;25.80;99.90;;;;;;5071974;28;20060;-48
2022/06/18 11:12:05;;;;;;;5.38;1.50;;;25.90;99.90;;;;;;5075569;28;20068;-49
2022/06/18 11:14:49;;;;;;;4.50;1.10;;;25.80;99.90;;;;;;5075109;28;20040;-49
2022/06/18 11:17:31;;;;;;;4.55;1.02;;;25.80;99.90;;;;;;5075061;28;20474;-50
2022/06/18 11:20:24;;;;;;;4.03;1.17;;;26.00;99.90;;;;;;5076614;28;20038;-49
2022/06/18 11:23:04;;;;;;;4.60;1.10;;;26.10;99.90;;;;;;5076881;28;20083;-49
2022/06/18 11:25:49;;;;;;;5.10;1.20;;;26.00;99.90;;;;;;5075998;28;21017;-49
2022/06/18 11:28:32;;;;;;;2.85;0.80;;;26.30;99.90;;;;;;5074494;28;20032;-48
2022/06/18 11:30:59;;;;;;;2.95;0.70;;;26.50;99.90;;;;;;5075372;28;20048;-46
2022/06/18 11:33:42;;;;;;;3.75;0.93;;;26.30;99.90;;;;;;5075771;28;20040;-48
2022/06/18 11:36:14;;;;;;;3.55;0.77;;;26.50;99.90;;;;;;5074880;28;20036;-48
2022/06/18 11:38:50;;;;;;;4.22;0.90;;;26.60;99.90;;;;;;5075132;28;20063;-49
2022/06/18 11:41:29;;;;;;;5.28;1.10;;;26.50;99.90;;;;;;5073968;28;20052;-48
2022/06/18 11:43:58;;;;;;;2.60;0.90;;;26.30;99.90;;;;;;5074560;28;20042;-47
2022/06/18 11:46:50;;;;;;;4.32;0.80;;;26.20;99.90;;;;;;5075199;28;20094;-49
2022/06/18 11:49:31;;;;;;;4.40;0.90;;;26.10;99.90;;;;;;5074843;28;20284;-49
2022/06/18 11:52:06;;;;;;;5.03;0.83;;;26.00;99.90;;;;;;5074614;28;20176;-48
2022/06/18 11:54:49;;;;;;;3.78;0.82;;;26.00;99.90;;;;;;5073926;28;20813;-53
2022/06/18 11:57:29;;;;;;;6.65;1.08;;;26.30;99.90;;;;;;5074857;28;20047;-48
2022/06/18 12:00:44;;;;;;;3.53;0.93;;;26.00;99.90;;;;;;5074347;28;20067;-48
2022/06/18 12:03:21;;;;;;;4.35;1.00;;;26.20;99.90;;;;;;5070154;28;20083;-50
2022/06/18 12:05:52;;;;;;;6.05;0.90;;;25.90;99.90;;;;;;5075452;28;20052;-48
2022/06/18 12:08:21;;;;;;;5.05;1.08;;;25.50;99.90;;;;;;5074232;28;20438;-49
2022/06/18 12:11:09;;;;;;;5.22;1.00;;;25.60;99.90;;;;;;5073161;28;20056;-49
2022/06/18 12:13:42;;;;;;;5.28;1.55;;;25.60;99.90;;;;;;5073140;28;20038;-49
2022/06/18 12:16:52;;;;;;;3.38;0.82;;;25.60;99.90;;;;;;5074674;28;20396;-48
2022/06/18 12:19:52;;;;;;;6.22;1.30;;;25.50;99.90;;;;;;5074008;28;20126;-46
2022/06/18 12:22:38;;;;;;;4.50;0.93;;;25.20;99.90;;;;;;5072874;28;20047;-49
2022/06/18 12:25:29;;;;;;;5.13;0.98;;;25.10;99.90;;;;;;5073290;28;20040;-47
2022/06/18 12:28:29;;;;;;;2.97;0.98;;;24.90;99.90;;;;;;5073217;28;20073;-49
2022/06/18 12:31:05;;;;;;;5.25;1.08;;;25.00;99.90;;;;;;5073926;28;20097;-49
2022/06/18 12:33:56;;;;;;;5.85;0.90;;;25.00;99.90;;;;;;5074161;28;20040;-47
2022/06/18 12:36:41;;;;;;;5.63;1.23;;;25.00;99.90;;;;;;5072336;28;20493;-49
2022/06/18 12:39:41;;;;;;;6.18;1.00;;;25.10;99.90;;;;;;5073693;28;20551;-46
2022/06/18 12:42:13;;;;;;;7.43;1.67;;;25.50;99.90;;;;;;5073532;28;20043;-46
2022/06/18 12:45:10;;;;;;;5.13;1.17;;;24.60;99.90;;;;;;5073693;28;20048;-45
2022/06/18 12:48:02;;;;;;;9.15;1.83;;;24.50;99.90;;;;;;5027312;28;20045;-47
2022/06/18 12:51:05;;;;;;;7.35;1.90;;;24.30;99.90;;;;;;5027615;28;20033;-44
2022/06/18 12:53:37;;;;;;;6.75;1.50;;;24.10;99.90;;;;;;5028495;28;20533;-48
2022/06/18 12:56:07;;;;;;;;;;;23.80;99.90;;;;;;5026179;28;20579;-47
2022/06/18 12:58:53;;;;;;;7.20;1.50;;;23.50;99.90;;;;;;5024867;28;19947;-49
2022/06/18 13:01:57;;;;;;;7.85;1.30;;;23.90;99.90;;;;;;5028674;28;20700;-43
2022/06/18 13:04:51;;;;;;;7.28;1.70;;;23.90;99.90;;;;;;5028624;28;20525;-44
2022/06/18 13:07:37;;;;;;;7.80;1.40;;;23.20;99.90;;;;;;5018161;28;20119;-47
2022/06/18 13:10:36;;;;;;;6.38;1.10;;;23.00;99.90;;;;;;4952770;28;20110;-46
2022/06/18 13:13:36;;;;;;;8.25;1.95;;;22.70;99.90;;;;;;4952639;28;20043;-48
2022/06/18 13:16:22;;;;;;;5.10;1.15;;;22.50;99.90;;;;;;4952687;28;20081;-45
2022/06/18 13:19:13;;;;;;;6.43;1.20;;;22.10;99.90;;;;;;4952832;28;20067;-49
2022/06/18 13:21:40;;;;;;;6.05;1.38;;;22.00;99.90;;;;;;4952782;28;20554;-47
2022/06/18 13:29:58;;;;;;;7.75;1.45;;;21.80;99.90;;;;;;4992166;28;20065;-47
2022/06/18 13:32:44;;;;;;;3.67;0.90;;;21.80;99.90;;;;;;4990846;28;20271;-48